This is the latest recevied weather packets stored in our database for station/object KI4MRC. If no packets are shown the sender has not sent any weather packets the latest 10 day(s).
| Time | Temp. | Humidity | Pressure | Rain* | Wind** | Luminosity | Snow |
|---|---|---|---|---|---|---|---|
| 1777386572 | 30° C | 59% | 1018.7 hPa | 0 mm | - | 719 W/m² | - |
| 1777385966 | 29.44° C | 59% | 1018.8 hPa | 0 mm | - | 675 W/m² | - |
| 1777385662 | 28.89° C | 61% | 1018.6 hPa | 0 mm | - | 657 W/m² | - |
| 1777385360 | 28.89° C | 61% | 1018.5 hPa | 0 mm | - | 635 W/m² | - |
| 1777385056 | 28.89° C | 62% | 1018.6 hPa | 0 mm | - | 625 W/m² | - |
| 1777384448 | 28.33° C | 62% | 1018.3 hPa | 0 mm | - | 580 W/m² | - |
| 1777383840 | 28.33° C | 65% | 1018.4 hPa | 0 mm | - | 536 W/m² | - |
| 1777383536 | 28.33° C | 65% | 1018.1 hPa | 0 mm | - | 512 W/m² | - |
| 1777382624 | 28.33° C | 63% | 1018.3 hPa | 0 mm | - | 469 W/m² | - |
| 1777382321 | 27.78° C | 65% | 1018.5 hPa | 0 mm | - | 437 W/m² | - |
| 1777381712 | 27.22° C | 69% | 1018.4 hPa | 0 mm | - | 383 W/m² | - |
| 1777380801 | 26.11° C | 77% | 1018.3 hPa | 0 mm | - | 512 W/m² | - |
| 1777378982 | 21.67° C | 97% | 1018.4 hPa | 0 mm | - | 47 W/m² | - |
| 1777378678 | 21.67° C | 98% | 1018.3 hPa | 0 mm | - | 50 W/m² | - |
| 1777378069 | 21.11° C | 99% | 1018.4 hPa | 0 mm | - | 43 W/m² | - |
| 1777376852 | 20° C | 99% | 1018.3 hPa | 0 mm | - | 34 W/m² | - |
| 1777376245 | 20° C | 99% | 1018 hPa | 0 mm | - | 29 W/m² | - |
| 1777375940 | 20° C | 98% | 1017.8 hPa | 0 mm | - | 27 W/m² | - |
| 1777372594 | 19.44° C | 98% | 1017.4 hPa | 0 mm | - | 1 W/m² | - |
| 1777372294 | 19.44° C | 98% | 1017.1 hPa | 0 mm | - | 0 W/m² | - |
| 1777371992 | 20° C | 98% | 1017.2 hPa | 0 mm | - | 0 W/m² | - |
| 1777371689 | 19.44° C | 98% | 1016.9 hPa | 0 mm | - | 0 W/m² | - |
| 1777371386 | 20° C | 98% | 1017 hPa | 0 mm | - | 0 W/m² | - |
| 1777371082 | 20° C | 98% | 1017 hPa | 0 mm | - | 0 W/m² | - |
| 1777370778 | 20° C | 98% | 1016.8 hPa | 0 mm | - | 0 W/m² | - |
* Rain latest hour (hover to see other rain measurements)
** Current wind speed in m/s (hover to see current wind gust speed)